Eiwamaru — JG5742 — position and weather

sailwx.info

Track history (hours):
 
Tides and Currents Weather Stations Pressure Air Temp Water Temp Dewpoint Dewpoint Depression Visibility Wind Speed Wind Dir Waves Ship Positions

Eiwamaru

Last reported at 2016-May-28 01:07 UTC. Time now 2016-May-28 20:40 UTC.
Position N 34°31' E 135°24'.

Length 80 m; draft 3.9 m.

Type: Ship (hazmat cat A). MMSI: 431101045.

Date/timePositionNaut miles runAvg speedWind from/ knotsBaromVisibWave heightAir tempDewpointWater temp
2016-May-28 01:07N 34°31' E 135°24'1 1.6
2016-May-28 00:33N 34°32' E 135°24'1212.5
2016-May-27 23:33N 34°26' E 135°10'1312.3
2016-May-27 22:30N 34°17' E 134°59'  
2016-May-23 12:33N 34°59' E 139°25'1312.7
2016-May-23 11:33N 35°05' E 139°38'1212.1
2016-May-23 10:33N 35°16' E 139°46'1110.6
2016-May-23 09:34N 35°26' E 139°46'1312.7
2016-May-23 08:33N 35°33' E 139°59'6 6.4
2016-May-23 07:33N 35°36' E 140°06'0 0.0
2016-May-23 06:33N 35°36' E 140°06'0 0.0
2016-May-23 05:33N 35°36' E 140°06'0 0.0
2016-May-23 04:33N 35°36' E 140°06'0 0.0
2016-May-23 03:32N 35°36' E 140°06'0 0.0
2016-May-23 02:33N 35°36' E 140°06'0 0.3
2016-May-23 01:34N 35°35' E 140°06'1111.4
2016-May-23 00:34N 35°29' E 139°55'0 0.2
2016-May-22 23:34N 35°29' E 139°54'0 0.0
2016-May-22 22:33N 35°29' E 139°54'0 0.0
2016-May-22 21:33N 35°29' E 139°54'0 0.0
2016-May-22 20:33N 35°29' E 139°54'0 0.0
2016-May-22 19:34N 35°29' E 139°54'0 0.0
2016-May-22 18:33N 35°29' E 139°54'0 0.0
2016-May-22 17:33N 35°29' E 139°54'0 0.0
2016-May-22 16:33N 35°29' E 139°54'0 0.0
2016-May-22 15:33N 35°29' E 139°54'0 0.0
2016-May-22 14:34N 35°29' E 139°54'0 0.0
2016-May-22 13:33N 35°29' E 139°54'0 0.0
2016-May-22 12:33N 35°29' E 139°54'0 0.0
2016-May-22 11:33N 35°29' E 139°54'0 0.0
2016-May-22 10:33N 35°29' E 139°54'0 0.0
2016-May-22 09:33N 35°29' E 139°54'0 0.0
2016-May-22 08:34N 35°29' E 139°54'0 0.0
2016-May-22 07:33N 35°29' E 139°54'0 0.0
2016-May-22 06:33N 35°29' E 139°54'0 0.0
2016-May-22 05:33N 35°29' E 139°54'0 0.0
2016-May-22 04:34N 35°29' E 139°54'0 0.0
2016-May-22 03:33N 35°29' E 139°54'0 0.0
2016-May-22 02:33N 35°29' E 139°54'0 0.0
2016-May-22 01:33N 35°29' E 139°54'0 0.0
2016-May-22 00:33N 35°29' E 139°54'3 3.3
2016-May-21 23:33N 35°27' E 139°51'1110.9
2016-May-21 22:33N 35°17' E 139°45'1211.8
2016-May-21 21:34N 35°06' E 139°45'1211.8
2016-May-21 20:32N 34°54' E 139°46'1511.6
2016-May-21 19:14N 34°56' E 140°05'3812.8
2016-May-21 16:16N 35°23' E 140°38'45 1.5
2016-May-20 10:13N 36°07' E 140°47'811.7
2016-May-20 09:33N 35°60' E 140°43'5 5.4
2016-May-20 08:33N 35°55' E 140°41'0 0.0
2016-May-20 07:28N 35°55' E 140°41'0 0.0
2016-May-20 06:29N 35°55' E 140°41'0 0.0
2016-May-20 05:31N 35°55' E 140°41'0 0.0
2016-May-20 04:33N 35°55' E 140°41'0 0.0
2016-May-20 03:33N 35°55' E 140°41'2 1.5
2016-May-20 02:31N 35°56' E 140°39'0 0.0
2016-May-20 01:32N 35°56' E 140°39'0 0.0
2016-May-20 00:33N 35°56' E 140°39'0 0.0
2016-May-19 23:33N 35°56' E 140°39'0 0.0
2016-May-19 20:31N 35°56' E 140°39'0 0.0
2016-May-19 19:33N 35°56' E 140°39'0 0.0
2016-May-19 18:33N 35°56' E 140°39'0 0.0
2016-May-19 17:33N 35°56' E 140°39'0 0.0
2016-May-19 15:25N 35°56' E 140°39'0 0.0
2016-May-19 14:33N 35°56' E 140°39'0 0.0
2016-May-19 13:33N 35°56' E 140°39'0 0.0
2016-May-19 12:16N 35°56' E 140°39'0 0.0
2016-May-19 11:33N 35°56' E 140°39'0 0.0
2016-May-19 10:33N 35°56' E 140°39'1 1.4
2016-May-19 09:31N 35°55' E 140°41'0 0.1
2016-May-19 08:33N 35°55' E 140°41'0 0.0
2016-May-19 07:32N 35°55' E 140°41'0 0.0
2016-May-19 06:26N 35°55' E 140°41'0 0.0
2016-May-19 05:33N 35°55' E 140°41'0 0.0
2016-May-19 04:32N 35°55' E 140°41'0 0.0
2016-May-19 03:32N 35°55' E 140°41'5 4.8
2016-May-19 02:33N 35°58' E 140°45'0 0.3
2016-May-19 01:28N 35°58' E 140°45'0 0.0
2016-May-19 00:31N 35°58' E 140°45'0 0.0
2016-May-18 22:33N 35°58' E 140°45'0 0.0
2016-May-18 21:33N 35°58' E 140°45'0 0.0
2016-May-18 20:33N 35°58' E 140°45'0 0.0
2016-May-18 19:33N 35°58' E 140°45'0 0.0
2016-May-18 18:32N 35°58' E 140°45'0 0.0
2016-May-18 17:33N 35°58' E 140°45'0 0.0
2016-May-18 16:29N 35°58' E 140°45'0 0.0
2016-May-18 15:33N 35°58' E 140°45'0 0.0
2016-May-18 14:33N 35°58' E 140°45'6 5.9
2016-May-18 13:33N 35°53' E 140°50'1211.8
2016-May-18 12:33N 35°42' E 140°56'1212.3
2016-May-18 11:33N 35°33' E 140°47'1313.1
2016-May-18 10:33N 35°22' E 140°37'1412.9
2016-May-18 09:29N 35°11' E 140°27'1213.2
2016-May-18 08:32N 35°03' E 140°16'1812.4
2016-May-18 07:07N 34°53' E 139°58'811.0
2016-May-18 06:22N 34°53' E 139°48'  
Track history (hours):
 
Tides and Currents Weather Stations Pressure Air Temp Water Temp Dewpoint Dewpoint Depression Visibility Wind Speed Wind Dir Waves Ship Positions

Eiwamaru

Last reported at 2016-May-28 01:07 UTC. Time now 2016-May-28 20:40 UTC.
Position N 34°31' E 135°24'.

Length 80 m; draft 3.9 m.

Type: Ship (hazmat cat A). MMSI: 431101045.

Date/timePositionNaut miles runAvg speedWind from/ knotsBaromVisibWave heightAir tempDewpointWater temp
2016-May-28 01:07N 34°31' E 135°24'1 1.6
2016-May-28 00:33N 34°32' E 135°24'1212.5
2016-May-27 23:33N 34°26' E 135°10'1312.3
2016-May-27 22:30N 34°17' E 134°59'  
2016-May-23 12:33N 34°59' E 139°25'1312.7
2016-May-23 11:33N 35°05' E 139°38'1212.1
2016-May-23 10:33N 35°16' E 139°46'1110.6
2016-May-23 09:34N 35°26' E 139°46'1312.7
2016-May-23 08:33N 35°33' E 139°59'6 6.4
2016-May-23 07:33N 35°36' E 140°06'0 0.0
2016-May-23 06:33N 35°36' E 140°06'0 0.0
2016-May-23 05:33N 35°36' E 140°06'0 0.0
2016-May-23 04:33N 35°36' E 140°06'0 0.0
2016-May-23 03:32N 35°36' E 140°06'0 0.0
2016-May-23 02:33N 35°36' E 140°06'0 0.3
2016-May-23 01:34N 35°35' E 140°06'1111.4
2016-May-23 00:34N 35°29' E 139°55'0 0.2
2016-May-22 23:34N 35°29' E 139°54'0 0.0
2016-May-22 22:33N 35°29' E 139°54'0 0.0
2016-May-22 21:33N 35°29' E 139°54'0 0.0
2016-May-22 20:33N 35°29' E 139°54'0 0.0
2016-May-22 19:34N 35°29' E 139°54'0 0.0
2016-May-22 18:33N 35°29' E 139°54'0 0.0
2016-May-22 17:33N 35°29' E 139°54'0 0.0
2016-May-22 16:33N 35°29' E 139°54'0 0.0
2016-May-22 15:33N 35°29' E 139°54'0 0.0
2016-May-22 14:34N 35°29' E 139°54'0 0.0
2016-May-22 13:33N 35°29' E 139°54'0 0.0
2016-May-22 12:33N 35°29' E 139°54'0 0.0
2016-May-22 11:33N 35°29' E 139°54'0 0.0
2016-May-22 10:33N 35°29' E 139°54'0 0.0
2016-May-22 09:33N 35°29' E 139°54'0 0.0
2016-May-22 08:34N 35°29' E 139°54'0 0.0
2016-May-22 07:33N 35°29' E 139°54'0 0.0
2016-May-22 06:33N 35°29' E 139°54'0 0.0
2016-May-22 05:33N 35°29' E 139°54'0 0.0
2016-May-22 04:34N 35°29' E 139°54'0 0.0
2016-May-22 03:33N 35°29' E 139°54'0 0.0
2016-May-22 02:33N 35°29' E 139°54'0 0.0
2016-May-22 01:33N 35°29' E 139°54'0 0.0
2016-May-22 00:33N 35°29' E 139°54'3 3.3
2016-May-21 23:33N 35°27' E 139°51'1110.9
2016-May-21 22:33N 35°17' E 139°45'1211.8
2016-May-21 21:34N 35°06' E 139°45'1211.8
2016-May-21 20:32N 34°54' E 139°46'1511.6
2016-May-21 19:14N 34°56' E 140°05'3812.8
2016-May-21 16:16N 35°23' E 140°38'45 1.5
2016-May-20 10:13N 36°07' E 140°47'811.7
2016-May-20 09:33N 35°60' E 140°43'5 5.4
2016-May-20 08:33N 35°55' E 140°41'0 0.0
2016-May-20 07:28N 35°55' E 140°41'0 0.0
2016-May-20 06:29N 35°55' E 140°41'0 0.0
2016-May-20 05:31N 35°55' E 140°41'0 0.0
2016-May-20 04:33N 35°55' E 140°41'0 0.0
2016-May-20 03:33N 35°55' E 140°41'2 1.5
2016-May-20 02:31N 35°56' E 140°39'0 0.0
2016-May-20 01:32N 35°56' E 140°39'0 0.0
2016-May-20 00:33N 35°56' E 140°39'0 0.0
2016-May-19 23:33N 35°56' E 140°39'0 0.0
2016-May-19 20:31N 35°56' E 140°39'0 0.0
2016-May-19 19:33N 35°56' E 140°39'0 0.0
2016-May-19 18:33N 35°56' E 140°39'0 0.0
2016-May-19 17:33N 35°56' E 140°39'0 0.0
2016-May-19 15:25N 35°56' E 140°39'0 0.0
2016-May-19 14:33N 35°56' E 140°39'0 0.0
2016-May-19 13:33N 35°56' E 140°39'0 0.0
2016-May-19 12:16N 35°56' E 140°39'0 0.0
2016-May-19 11:33N 35°56' E 140°39'0 0.0
2016-May-19 10:33N 35°56' E 140°39'1 1.4
2016-May-19 09:31N 35°55' E 140°41'0 0.1
2016-May-19 08:33N 35°55' E 140°41'0 0.0
2016-May-19 07:32N 35°55' E 140°41'0 0.0
2016-May-19 06:26N 35°55' E 140°41'0 0.0
2016-May-19 05:33N 35°55' E 140°41'0 0.0
2016-May-19 04:32N 35°55' E 140°41'0 0.0
2016-May-19 03:32N 35°55' E 140°41'5 4.8
2016-May-19 02:33N 35°58' E 140°45'0 0.3
2016-May-19 01:28N 35°58' E 140°45'0 0.0
2016-May-19 00:31N 35°58' E 140°45'0 0.0
2016-May-18 22:33N 35°58' E 140°45'0 0.0
2016-May-18 21:33N 35°58' E 140°45'0 0.0
2016-May-18 20:33N 35°58' E 140°45'0 0.0
2016-May-18 19:33N 35°58' E 140°45'0 0.0
2016-May-18 18:32N 35°58' E 140°45'0 0.0
2016-May-18 17:33N 35°58' E 140°45'0 0.0
2016-May-18 16:29N 35°58' E 140°45'0 0.0
2016-May-18 15:33N 35°58' E 140°45'0 0.0
2016-May-18 14:33N 35°58' E 140°45'6 5.9
2016-May-18 13:33N 35°53' E 140°50'1211.8
2016-May-18 12:33N 35°42' E 140°56'1212.3
2016-May-18 11:33N 35°33' E 140°47'1313.1
2016-May-18 10:33N 35°22' E 140°37'1412.9
2016-May-18 09:29N 35°11' E 140°27'1213.2
2016-May-18 08:32N 35°03' E 140°16'1812.4
2016-May-18 07:07N 34°53' E 139°58'811.0
2016-May-18 06:22N 34°53' E 139°48'  

Dump ship's entire track history